KGPT

Gulfport-Biloxi International Airport

Gulfport, Mississippi, USA
METAR KGPT 170253Z 18005KT 10SM VCTS FEW028 29/24 A3009 RMK AO2 SLP188 T02940244 58003
Observed Flight Rules
Aug-17 @ 02:53 UTC (an hour ago) Visual Flight Rules
Wind Visibility Clouds Conditions
180° at 5 knots 10 miles
  • Few at 2,800' AGL
  • Area Thunderstorm
Temperatures Readings
Current 29°C / 84°F
Dewpoint 24°C / 75°F
Humidity 74%
Altimeter 30.09" Hg
Pressure 1018.8 hPa
Elevation 14
METAR KGPT 170253Z 18005KT 10SM VCTS FEW028 29/24 A3009 RMK AO2 SLP188 T02940244 58003
Observed Flight Rules
Aug-17 @ 02:53 UTC
(an hour ago)
VFR
Wind Visibility
180° at 5 knots 10 miles
Clouds
  • Few at 2,800' AGL
Conditions
  • Area Thunderstorm
Temperature Dewpoint
29°C / 84°F 24°C / 75°F
Humidity Altimeter Pressure
74% 30.09" Hg 1018.8 hPa